Time;durP1;ratioP1;P1;durP2;ratioP2;P2;SDS_P1;SDS_P2;PMS_P1;PMS_P2;Temp;Humidity;BMP_temperature;BMP_pressure;BME280_temperature;BME280_humidity;BME280_pressure;Samples;Min_cycle;Max_cycle;Signal;HPM_P1;HPM_P2
2022/10/03 00:02:27;;;;;;;0.40;0.20;;;;;;;13.71;78.29;95431.97;5111780;28;20434;-55
2022/10/03 00:05:10;;;;;;;0.50;0.30;;;;;;;12.22;81.40;95247.13;5111953;28;20877;-55
2022/10/03 00:07:55;;;;;;;0.40;0.20;;;;;;;13.03;83.03;95388.78;5112253;28;20858;-55
2022/10/03 00:10:37;;;;;;;0.70;0.70;;;;;;;13.34;82.41;95435.34;5111939;28;20471;-55
2022/10/03 00:13:20;;;;;;;0.40;0.20;;;;;;;13.36;82.63;95427.06;5112288;28;20422;-55
2022/10/03 00:15:53;;;;;;;0.50;0.30;;;;;;;13.28;82.64;95435.69;5112250;28;20817;-55
2022/10/03 00:18:36;;;;;;;0.40;0.20;;;;;;;13.30;82.87;95425.53;5112262;28;20423;-55
2022/10/03 00:21:15;;;;;;;0.40;0.30;;;;;;;13.68;80.68;95410.44;5112346;28;20425;-55
2022/10/03 00:23:55;;;;;;;0.40;0.20;;;;;;;13.26;80.92;95355.28;5112108;28;20794;-55
2022/10/03 00:26:36;;;;;;;0.40;0.20;;;;;;;13.50;79.73;95361.41;5112118;28;20422;-55
2022/10/03 00:29:24;;;;;;;0.40;0.20;;;;;;;13.66;80.46;95397.38;5112168;28;20784;-55
2022/10/03 00:32:02;;;;;;;0.40;0.20;;;;;;;13.67;80.68;95396.31;5116127;28;20807;-55
2022/10/03 00:34:48;;;;;;;0.40;0.20;;;;;;;13.55;81.13;95405.81;5115845;28;20426;-55
2022/10/03 00:37:26;;;;;;;0.40;0.30;;;;;;;13.08;84.44;95415.38;5115763;28;20428;-55
2022/10/03 00:40:47;;;;;;;0.40;0.27;;;;;;;13.31;82.85;95413.78;5115766;28;20437;-54
2022/10/03 00:43:45;;;;;;;0.40;0.20;;;;;;;13.20;83.69;95399.03;5116059;28;20430;-55
2022/10/03 00:46:50;;;;;;;0.40;0.30;;;;;;;13.35;82.54;95390.88;5115606;28;20434;-55
2022/10/03 00:49:52;;;;;;;0.40;0.23;;;;;;;13.50;81.15;95384.56;5115537;28;20473;-55
2022/10/03 00:52:47;;;;;;;0.40;0.20;;;;;;;13.59;82.56;95388.16;5115800;28;20806;-55
2022/10/03 00:55:24;;;;;;;0.40;0.30;;;;;;;13.46;80.91;95351.63;5115606;28;20958;-55
2022/10/03 00:58:21;;;;;;;0.40;0.20;;;;;;;13.52;80.54;95377.88;5115437;28;20429;-55
2022/10/03 01:00:52;;;;;;;0.40;0.30;;;;;;;12.66;84.22;95391.28;5115651;28;20795;-55
2022/10/03 01:03:36;;;;;;;0.50;0.40;;;;;;;12.48;85.47;95305.06;5115325;28;20435;-55
2022/10/03 01:06:17;;;;;;;0.40;0.20;;;;;;;13.25;83.69;95385.66;5115286;28;20422;-55
2022/10/03 01:09:06;;;;;;;0.40;0.20;;;;;;;12.62;82.15;95276.72;5115202;28;20939;-55
2022/10/03 01:11:46;;;;;;;0.40;0.30;;;;;;;12.85;81.90;95317.69;5115403;28;20489;-55
2022/10/03 01:14:32;;;;;;;0.40;0.20;;;;;;;12.69;82.73;95342.88;5115095;27;20437;-55
2022/10/03 01:17:12;;;;;;;0.40;0.30;;;;;;;13.27;82.16;95376.31;5115085;28;20597;-55
2022/10/03 01:20:06;;;;;;;0.50;0.30;;;;;;;13.41;81.80;95376.41;5114949;28;20430;-55
2022/10/03 01:22:58;;;;;;;0.40;0.20;;;;;;;13.49;81.03;95373.13;5115275;28;20445;-55
2022/10/03 01:25:38;;;;;;;0.40;0.20;;;;;;;13.31;81.52;95366.69;5112791;28;20446;-54
2022/10/03 01:31:20;;;;;;;0.50;0.30;;;;;;;13.24;81.77;95357.47;5114975;28;21002;-55
2022/10/03 01:33:55;;;;;;;0.40;0.30;;;;;;;12.90;82.43;95364.75;5114674;28;20423;-55
2022/10/03 01:36:32;;;;;;;0.40;0.30;;;;;;;12.86;82.83;95351.19;5114743;28;20912;-55
2022/10/03 01:39:07;;;;;;;0.40;0.30;;;;;;;13.04;82.25;95355.78;5115181;28;20911;-54
2022/10/03 01:41:47;;;;;;;0.40;0.30;;;;;;;13.23;81.70;95354.00;5113666;28;20430;-54
2022/10/03 01:44:24;;;;;;;0.40;0.20;;;;;;;12.83;83.25;95350.97;5115001;28;20422;-55
2022/10/03 01:46:56;;;;;;;0.40;0.20;;;;;;;12.85;83.17;95328.31;5114843;28;20899;-54
2022/10/03 01:49:34;;;;;;;0.40;0.30;;;;;;;12.79;82.83;95310.06;5114254;28;20497;-55
2022/10/03 01:52:10;;;;;;;0.40;0.20;;;;;;;13.12;82.39;95343.78;5114229;28;20481;-55
2022/10/03 01:54:50;;;;;;;0.50;0.30;;;;;;;13.11;82.68;95339.50;5114359;28;20418;-55
2022/10/03 01:57:30;;;;;;;0.40;0.20;;;;;;;12.67;84.44;95345.03;5114597;28;20426;-55
2022/10/03 02:00:05;;;;;;;0.40;0.20;;;;;;;12.33;88.83;95329.13;5114310;28;20423;-55
2022/10/03 02:02:41;;;;;;;0.40;0.30;;;;;;;12.07;92.29;95341.81;5114450;28;20426;-55
2022/10/03 02:05:18;;;;;;;0.40;0.30;;;;;;;11.80;97.58;95325.56;5114187;28;20803;-55
2022/10/03 02:07:56;;;;;;;0.40;0.30;;;;;;;11.07;97.94;95199.94;5114453;28;20419;-55
2022/10/03 02:10:36;;;;;;;0.50;0.40;;;;;;;12.13;95.85;95333.81;5114190;28;20520;-55
2022/10/03 02:13:14;;;;;;;0.40;0.20;;;;;;;12.50;91.93;95334.81;5114343;28;20429;-55
2022/10/03 02:15:57;;;;;;;0.40;0.20;;;;;;;12.77;87.83;95332.41;5113957;28;20422;-55
2022/10/03 02:18:38;;;;;;;0.40;0.30;;;;;;;12.97;86.08;95335.94;5113941;28;20426;-55
2022/10/03 02:21:13;;;;;;;0.40;0.20;;;;;;;12.65;87.64;95318.69;5114113;28;20419;-55
2022/10/03 02:23:44;;;;;;;0.40;0.20;;;;;;;12.66;88.15;95336.25;5114036;28;20436;-55
2022/10/03 02:26:54;;;;;;;0.40;0.20;;;;;;;12.31;88.24;95294.06;5114413;28;20427;-54
2022/10/03 02:29:56;;;;;;;0.53;0.53;;;;;;;12.66;87.70;95338.91;5107471;27;20499;-54
2022/10/03 02:32:59;;;;;;;0.40;0.30;;;;;;;12.64;88.95;95338.41;5113593;28;20472;-54
2022/10/03 02:36:20;;;;;;;0.87;0.50;;;;;;;11.63;92.31;95272.00;5113890;28;20929;-54
2022/10/03 02:39:22;;;;;;;3.43;0.97;;;;;;;12.37;90.18;95330.13;5069460;28;20838;-54
2022/10/03 02:42:32;;;;;;;0.57;0.30;;;;;;;12.38;90.00;95291.88;5081048;27;20441;-54
2022/10/03 02:45:36;;;;;;;0.40;0.40;;;;;;;12.42;89.01;95303.50;5112919;28;20819;-54
2022/10/03 02:48:59;;;;;;;0.40;0.23;;;;;;;12.29;89.38;95332.63;5090151;27;20438;-54
2022/10/03 02:52:04;;;;;;;0.40;0.20;;;;;;;12.57;88.85;95327.28;5113401;28;20466;-54
2022/10/03 02:54:55;;;;;;;0.40;0.20;;;;;;;12.52;89.27;95334.53;5113500;28;20422;-54
2022/10/03 02:58:11;;;;;;;0.50;0.30;;;;;;;12.29;88.99;95317.47;5113130;27;20903;-54
2022/10/03 03:01:03;;;;;;;0.40;0.20;;;;;;;12.25;91.01;95313.78;5113088;28;20445;-55
2022/10/03 03:03:54;;;;;;;0.50;0.47;;;;;;;12.44;90.48;95317.34;5112957;28;20443;-55
2022/10/03 03:07:14;;;;;;;0.40;0.30;;;;;;;12.85;86.20;95314.25;5113261;28;20448;-54
2022/10/03 03:10:01;;;;;;;0.40;0.20;;;;;;;12.26;86.81;95242.81;5087181;28;20437;-54
2022/10/03 03:12:55;;;;;;;0.50;0.30;;;;;;;12.42;87.53;95290.22;5113156;28;20470;-54
2022/10/03 03:16:14;;;;;;;0.43;0.23;;;;;;;12.60;86.13;95248.81;5110948;28;20973;-54
2022/10/03 03:18:48;;;;;;;0.40;0.20;;;;;;;11.94;86.09;95153.09;5112895;28;20464;-54
2022/10/03 03:21:26;;;;;;;0.40;0.20;;;;;;;12.55;88.17;95310.03;5112969;28;20425;-54
2022/10/03 03:24:21;;;;;;;0.40;0.20;;;;;;;12.13;87.75;95257.56;5112793;28;20429;-55
2022/10/03 03:27:45;;;;;;;0.40;0.30;;;;;;;12.66;86.60;95269.78;5112894;28;20491;-55
2022/10/03 03:30:18;;;;;;;0.40;0.20;;;;;;;11.93;84.86;95127.59;5113043;28;20450;-55
2022/10/03 03:33:00;;;;;;;0.40;0.20;;;;;;;12.12;84.36;95120.47;5112681;28;20466;-55
2022/10/03 03:35:42;;;;;;;0.40;0.20;;;;;;;12.57;83.13;95183.72;5112987;28;20430;-55
2022/10/03 03:38:23;;;;;;;0.40;0.20;;;;;;;13.05;85.79;95292.75;5112039;28;20425;-55
2022/10/03 03:41:05;;;;;;;0.40;0.40;;;;;;;12.82;85.36;95250.97;5112675;28;20436;-55
2022/10/03 03:43:59;;;;;;;0.43;0.27;;;;;;;12.00;84.70;95098.84;5112576;28;20426;-55
2022/10/03 03:46:40;;;;;;;0.40;0.30;;;;;;;13.18;86.12;95286.75;5112794;28;20433;-55
2022/10/03 03:49:29;;;;;;;3.33;0.53;;;;;;;13.27;85.59;95282.38;5112236;28;20426;-55
2022/10/03 03:52:16;;;;;;;0.50;0.30;;;;;;;13.38;85.16;95281.16;5112363;28;20971;-55
2022/10/03 03:55:14;;;;;;;0.40;0.30;;;;;;;13.08;85.40;95270.91;5112293;28;20422;-55
2022/10/03 03:58:06;;;;;;;0.40;0.30;;;;;;;13.26;84.70;95268.25;5112304;28;20426;-55
2022/10/03 04:00:52;;;;;;;0.40;0.30;;;;;;;12.72;85.53;95204.03;5112558;28;20903;-55
2022/10/03 04:03:42;;;;;;;0.40;0.20;;;;;;;12.84;85.60;95259.47;5112286;28;20432;-55
2022/10/03 04:06:31;;;;;;;0.40;0.30;;;;;;;12.34;86.55;95261.63;5112122;28;20426;-54
2022/10/03 04:09:23;;;;;;;0.40;0.30;;;;;;;11.94;92.85;95289.31;5112118;28;20912;-54
2022/10/03 04:11:59;;;;;;;0.60;0.50;;;;;;;11.21;100.00;95285.78;5109749;27;20505;-55
2022/10/03 04:14:49;;;;;;;0.50;0.50;;;;;;;11.05;100.00;95286.94;5112342;28;20453;-54
2022/10/03 04:20:57;;;;;;;0.50;0.30;;;;;;;10.48;100.00;95289.25;5112304;28;20450;-54
2022/10/03 04:23:46;;;;;;;0.40;0.30;;;;;;;10.08;100.00;95216.75;5111999;28;20442;-54
2022/10/03 04:26:41;;;;;;;4.03;1.20;;;;;;;10.69;100.00;95293.44;5112197;28;20418;-53
2022/10/03 04:29:30;;;;;;;0.53;0.53;;;;;;;10.12;100.00;95111.88;5112133;28;20426;-53
2022/10/03 04:32:12;;;;;;;0.80;0.53;;;;;;;10.78;100.00;95115.00;5112078;28;20470;-53
2022/10/03 04:34:50;;;;;;;0.50;0.30;;;;;;;11.05;100.00;95217.19;5111937;28;20419;-53
2022/10/03 04:37:26;;;;;;;0.50;0.30;;;;;;;11.52;100.00;95297.03;5111792;28;20429;-53
2022/10/03 04:40:18;;;;;;;0.40;0.20;;;;;;;11.51;98.17;95271.53;5111741;28;20457;-53
2022/10/03 04:42:57;;;;;;;0.40;0.30;;;;;;;11.40;94.95;95212.47;5111556;28;20437;-53
2022/10/03 04:45:38;;;;;;;0.40;0.30;;;;;;;11.17;93.36;95128.25;5112063;28;20483;-53
2022/10/03 04:48:16;;;;;;;0.40;0.30;;;;;;;11.17;93.36;95125.59;5111735;28;20903;-53
2022/10/03 04:50:59;;;;;;;1.07;0.40;;;;;;;11.47;96.13;95247.44;5111408;28;20474;-53
2022/10/03 04:53:41;;;;;;;0.60;0.30;;;;;;;11.88;97.13;95287.78;5111897;28;20466;-53
2022/10/03 04:56:34;;;;;;;0.40;0.20;;;;;;;12.23;93.61;95302.63;5111773;28;20442;-53
2022/10/03 04:59:10;;;;;;;0.40;0.30;;;;;;;12.03;96.35;95297.50;5111686;28;20981;-53
2022/10/03 05:01:49;;;;;;;0.40;0.30;;;;;;;11.95;95.31;95255.59;5111771;28;20476;-53
2022/10/03 05:04:29;;;;;;;0.50;0.40;;;;;;;12.09;96.76;95309.69;5111522;28;20429;-53
2022/10/03 05:07:07;;;;;;;0.90;0.90;;;;;;;12.15;96.71;95302.44;5111870;28;20426;-53
2022/10/03 05:09:42;;;;;;;0.50;0.40;;;;;;;11.98;94.79;95261.16;5111780;28;20419;-54
2022/10/03 05:12:17;;;;;;;1.20;1.00;;;;;;;12.30;93.48;95286.34;5111693;28;20472;-54
2022/10/03 05:14:58;;;;;;;0.60;0.60;;;;;;;11.28;92.49;95099.78;5111428;28;20433;-54
2022/10/03 05:17:45;;;;;;;4.63;0.30;;;;;;;12.74;90.62;95281.66;5113399;28;20442;-54
2022/10/03 05:20:26;;;;;;;0.40;0.30;;;;;;;12.70;90.49;95285.94;5115041;28;20438;-54
2022/10/03 05:23:00;;;;;;;1.43;0.40;;;;;;;12.69;89.70;95295.81;5115053;28;20419;-54
2022/10/03 05:25:40;;;;;;;0.50;0.30;;;;;;;12.45;92.41;95299.50;5115343;27;20483;-54
2022/10/03 05:28:22;;;;;;;1.17;0.50;;;;;;;12.71;92.11;95285.66;5114901;28;20845;-54
2022/10/03 05:30:58;;;;;;;1.00;0.70;;;;;;;12.96;89.29;95279.25;5115026;28;20459;-54
2022/10/03 05:33:40;;;;;;;0.40;0.40;;;;;;;12.70;90.80;95292.06;5114818;28;20535;-55
2022/10/03 05:36:18;;;;;;;2.70;0.33;;;;;;;12.99;88.58;95267.25;5114790;28;20428;-55
2022/10/03 05:39:25;;;;;;;0.53;0.40;;;;;;;13.27;85.80;95267.19;5114679;28;20426;-55
2022/10/03 05:42:00;;;;;;;0.40;0.30;;;;;;;13.42;83.31;95279.50;5114672;28;20441;-54
2022/10/03 05:45:01;;;;;;;0.40;0.30;;;;;;;13.24;84.02;95254.47;5114927;28;20426;-54
2022/10/03 05:47:47;;;;;;;1.37;0.50;;;;;;;13.14;83.85;95275.09;5114880;28;20430;-54
2022/10/03 05:50:57;;;;;;;0.40;0.30;;;;;;;13.67;83.10;95276.47;5114325;28;20482;-55
2022/10/03 05:53:53;;;;;;;0.40;0.30;;;;;;;13.95;81.36;95269.38;5114664;28;20461;-54
2022/10/03 05:56:44;;;;;;;0.47;0.30;;;;;;;14.19;80.10;95287.94;5114634;28;20427;-54
2022/10/03 05:59:45;;;;;;;0.40;0.30;;;;;;;14.27;79.23;95273.94;5114264;28;20437;-53
2022/10/03 06:02:58;;;;;;;2.20;0.70;;;;;;;15.05;75.46;95282.59;5114144;28;20422;-54
2022/10/03 06:05:44;;;;;;;0.40;0.30;;;;;;;15.67;73.39;95266.91;5078019;28;20805;-54
2022/10/03 06:08:44;;;;;;;0.50;0.30;;;;;;;16.39;70.70;95273.69;5114073;28;20429;-54
2022/10/03 06:11:33;;;;;;;1.13;0.30;;;;;;;16.68;69.39;95269.78;5111786;28;20438;-55
2022/10/03 06:14:28;;;;;;;1.57;0.47;;;;;;;16.55;69.31;95199.22;5113935;27;20987;-56
2022/10/03 06:17:15;;;;;;;0.83;0.83;;;;;;;16.59;71.33;95271.63;5113848;28;20431;-55
2022/10/03 06:19:50;;;;;;;0.57;0.50;;;;;;;16.55;72.31;95276.00;5113880;28;20430;-57
2022/10/03 06:22:44;;;;;;;0.50;0.50;;;;;;;17.01;69.47;95273.69;5113875;28;20422;-56
2022/10/03 06:25:41;;;;;;;0.50;0.40;;;;;;;17.05;69.29;95221.09;5101017;28;20450;-56
2022/10/03 06:28:56;;;;;;;0.40;0.40;;;;;;;18.04;66.39;95281.88;5113468;28;20932;-56
2022/10/03 06:31:59;;;;;;;0.60;0.43;;;;;;;18.62;64.60;95274.09;5114080;28;20430;-56
2022/10/03 06:35:00;;;;;;;0.40;0.30;;;;;;;17.64;65.01;95284.72;5113547;28;20448;-56
2022/10/03 06:37:57;;;;;;;0.40;0.30;;;;;;;18.02;64.86;95258.06;5113387;28;21025;-55
2022/10/03 06:41:02;;;;;;;0.80;0.70;;;;;;;18.15;65.04;95280.47;5115085;28;20489;-54
2022/10/03 06:43:47;;;;;;;1.63;1.53;;;;;;;17.91;64.75;95290.91;5116622;28;20418;-55
2022/10/03 06:46:52;;;;;;;0.40;0.30;;;;;;;19.16;61.85;95279.72;5113727;28;20419;-55
2022/10/03 06:49:51;;;;;;;0.50;0.30;;;;;;;19.71;58.24;95234.66;5113194;28;20478;-57
2022/10/03 06:52:49;;;;;;;1.77;1.67;;;;;;;19.89;57.25;95273.75;5113567;27;20446;-56
2022/10/03 06:55:41;;;;;;;0.70;0.70;;;;;;;19.96;56.82;95268.63;5113599;28;20992;-57
2022/10/03 06:59:05;;;;;;;1.37;0.87;;;;;;;21.11;53.19;95248.78;5113489;28;20912;-58
2022/10/03 07:01:54;;;;;;;0.50;0.50;;;;;;;21.42;51.06;95222.03;5113167;28;20993;-59
2022/10/03 07:04:54;;;;;;;0.40;0.40;;;;;;;21.55;51.49;95241.66;5113465;28;20487;-60
2022/10/03 07:08:01;;;;;;;0.77;0.77;;;;;;;21.97;50.83;95236.75;5095449;28;20434;-58
2022/10/03 07:11:02;;;;;;;0.50;0.33;;;;;;;22.72;49.14;95241.13;5095959;28;20447;-57
2022/10/03 07:13:50;;;;;;;0.50;0.40;;;;;;;21.57;51.74;95222.44;5050005;28;20466;-56
2022/10/03 07:16:56;;;;;;;0.70;0.70;;;;;;;22.33;48.71;95233.91;5107104;27;20434;-56
2022/10/03 07:19:55;;;;;;;0.50;0.40;;;;;;;23.13;47.57;95179.53;5112838;28;20423;-52
2022/10/03 07:22:59;;;;;;;0.47;0.30;;;;;;;22.73;47.33;95207.56;5113052;28;20422;-51
2022/10/03 07:26:14;;;;;;;0.83;0.53;;;;;;;21.13;49.36;95171.06;5112696;28;20919;-52
2022/10/03 07:29:14;;;;;;;1.00;0.73;;;;;;;22.06;49.58;95207.69;5112848;28;20778;-53
2022/10/03 07:32:00;;;;;;;0.43;0.30;;;;;;;23.39;47.37;95228.47;5112843;28;20944;-51
2022/10/03 07:34:53;;;;;;;0.50;0.30;;;;;;;22.83;47.45;95162.22;5112606;28;20470;-52
2022/10/03 07:41:04;;;;;;;0.40;0.20;;;;;;;23.77;45.87;95215.00;5111631;28;20446;-53
2022/10/03 07:44:03;;;;;;;3.57;0.63;;;;;;;21.67;48.80;95219.25;5089317;28;20431;-52
2022/10/03 07:47:16;;;;;;;0.40;0.30;;;;;;;20.65;50.24;95160.28;5099555;28;20443;-55
2022/10/03 07:50:17;;;;;;;0.40;0.20;;;;;;;21.23;50.91;95224.50;5112376;28;20489;-52
2022/10/03 07:53:00;;;;;;;0.50;0.30;;;;;;;19.96;52.69;95228.25;5112176;28;20542;-51
2022/10/03 07:55:42;;;;;;;0.40;0.30;;;;;;;19.73;53.72;95210.94;5112477;27;20438;-52
2022/10/03 07:58:46;;;;;;;0.93;0.93;;;;;;;20.09;53.41;95229.88;5111733;28;20426;-54
2022/10/03 08:01:37;;;;;;;1.50;0.30;;;;;;;21.84;50.46;95229.78;5111798;28;20434;-56
2022/10/03 08:05:02;;;;;;;0.40;0.40;;;;;;;22.94;47.89;95212.72;5112104;28;20917;-55
2022/10/03 08:07:53;;;;;;;0.50;0.40;;;;;;;23.33;45.93;95152.19;5069278;28;20437;-54
2022/10/03 08:10:48;;;;;;;0.40;0.30;;;;;;;26.03;41.84;95204.50;5069254;28;20444;-54
2022/10/03 08:13:32;;;;;;;0.40;0.30;;;;;;;25.96;43.25;95196.28;5110411;28;21018;-53
2022/10/03 08:16:16;;;;;;;0.40;0.23;;;;;;;27.03;40.11;95192.34;5111967;28;20427;-53
2022/10/03 08:19:06;;;;;;;0.43;0.30;;;;;;;26.95;38.98;95184.50;5112004;28;20427;-53
2022/10/03 08:21:52;;;;;;;0.40;0.30;;;;;;;26.68;40.96;95185.78;5112133;28;20992;-53
2022/10/03 08:24:50;;;;;;;0.80;0.80;;;;;;;27.47;39.65;95181.44;5112090;28;20416;-54
2022/10/03 08:27:45;;;;;;;0.40;0.30;;;;;;;26.11;41.11;95192.56;5111922;28;20432;-54
2022/10/03 08:30:22;;;;;;;0.50;0.30;;;;;;;27.09;39.61;95182.69;5081080;28;20431;-53
2022/10/03 08:33:25;;;;;;;0.40;0.30;;;;;;;26.54;39.79;95178.28;5112136;28;20424;-53
2022/10/03 08:36:29;;;;;;;0.40;0.30;;;;;;;26.21;41.42;95181.81;5111845;28;20901;-53
2022/10/03 08:39:09;;;;;;;0.40;0.30;;;;;;;26.10;40.34;95171.97;5109667;28;20440;-53
2022/10/03 08:42:19;;;;;;;0.30;0.20;;;;;;;27.59;38.10;95169.44;5112110;28;20426;-53
2022/10/03 08:45:23;;;;;;;0.40;0.30;;;;;;;25.02;40.66;95167.41;5111737;28;20900;-53
2022/10/03 08:48:35;;;;;;;0.60;0.50;;;;;;;23.67;41.00;95158.75;5111731;28;20438;-53
2022/10/03 08:51:46;;;;;;;0.40;0.40;;;;;;;24.89;39.43;95160.63;5106801;28;21004;-53
2022/10/03 08:54:49;;;;;;;0.40;0.30;;;;;;;25.82;39.48;95161.56;5115729;28;20482;-53
2022/10/03 08:57:39;;;;;;;0.30;0.20;;;;;;;27.00;36.60;95152.28;5114135;28;20431;-53
2022/10/03 09:00:15;;;;;;;0.50;0.40;;;;;;;26.11;38.58;95160.72;5115187;28;20420;-53
2022/10/03 09:03:30;;;;;;;0.40;0.30;;;;;;;25.21;39.59;95162.66;5115430;28;20430;-53
2022/10/03 09:06:43;;;;;;;0.40;0.30;;;;;;;24.66;40.47;95168.75;5115377;28;20446;-53
2022/10/03 09:10:21;;;;;;;0.33;0.27;;;;;;;24.41;41.76;95168.28;5115624;28;20420;-54
2022/10/03 09:13:15;;;;;;;0.70;0.43;;;;;;;23.71;43.01;95165.00;5115556;28;20925;-53
2022/10/03 09:16:15;;;;;;;0.40;0.20;;;;;;;23.92;43.52;95175.47;5115595;28;20447;-53
2022/10/03 09:19:07;;;;;;;0.40;0.30;;;;;;;23.43;43.32;95171.75;5115475;28;20506;-54
2022/10/03 09:22:19;;;;;;;7.53;0.50;;;;;;;23.63;42.04;95151.69;5115255;28;20446;-54
2022/10/03 09:25:29;;;;;;;0.40;0.30;;;;;;;23.85;41.29;95157.19;5115392;28;20479;-54
2022/10/03 09:28:32;;;;;;;0.40;0.20;;;;;;;23.86;41.15;95157.94;5115007;28;20443;-53
2022/10/03 09:31:23;;;;;;;0.40;0.30;;;;;;;24.50;40.58;95155.31;5115317;28;20507;-53
2022/10/03 09:34:12;;;;;;;0.40;0.30;;;;;;;24.28;43.36;95133.63;5115211;28;20956;-53
2022/10/03 09:37:16;;;;;;;0.40;0.20;;;;;;;24.01;52.66;95138.91;5114836;28;20947;-52
2022/10/03 09:40:16;;;;;;;8.77;3.07;;;;;;;23.56;49.52;95144.19;5115127;28;20415;-53
2022/10/03 09:43:05;;;;;;;4.63;1.77;;;;;;;22.58;51.79;95157.00;5114560;28;20902;-53
2022/10/03 09:46:03;;;;;;;2.77;2.60;;;;;;;22.63;51.39;95159.47;5114889;28;20419;-53
2022/10/03 09:49:12;;;;;;;2.00;1.07;;;;;;;22.06;51.55;95164.53;5114481;28;20530;-53
2022/10/03 09:51:52;;;;;;;0.43;0.30;;;;;;;22.81;50.46;95148.28;5099911;28;20431;-53
2022/10/03 09:54:54;;;;;;;0.40;0.20;;;;;;;22.38;51.50;95147.22;5114419;27;20470;-54
2022/10/03 09:57:52;;;;;;;2.33;1.43;;;;;;;22.82;50.34;95139.81;5114678;28;20438;-54
2022/10/03 10:00:27;;;;;;;0.70;0.50;;;;;;;22.42;50.93;95133.78;5114330;28;20430;-54
2022/10/03 10:03:19;;;;;;;0.60;0.53;;;;;;;22.48;52.85;95133.19;5113342;28;20427;-54
2022/10/03 10:06:05;;;;;;;0.50;0.40;;;;;;;23.25;51.36;95119.97;5114540;28;20900;-54
2022/10/03 10:08:59;;;;;;;0.40;0.30;;;;;;;23.02;51.98;95121.75;5114485;28;20806;-54
2022/10/03 10:11:49;;;;;;;0.40;0.20;;;;;;;23.37;50.53;95125.25;5114476;28;20420;-54
2022/10/03 10:14:46;;;;;;;0.40;0.20;;;;;;;22.97;52.64;95067.97;5114284;28;20492;-54
2022/10/03 10:17:53;;;;;;;0.40;0.30;;;;;;;22.84;53.47;95113.25;5080437;28;20940;-54
2022/10/03 10:20:36;;;;;;;0.40;0.20;;;;;;;23.07;51.02;95108.72;5114263;28;20423;-53
2022/10/03 10:23:23;;;;;;;0.50;0.30;;;;;;;22.94;51.91;95111.91;5114190;28;20805;-53
2022/10/03 10:26:29;;;;;;;0.40;0.20;;;;;;;22.50;52.91;95098.53;5113894;28;20423;-53
2022/10/03 10:29:30;;;;;;;0.50;0.50;;;;;;;21.81;52.55;95096.34;5113600;28;20443;-53
2022/10/03 10:32:44;;;;;;;0.40;0.20;;;;;;;22.59;50.70;95103.75;5113830;28;20442;-53
2022/10/03 10:35:51;;;;;;;0.50;0.30;;;;;;;21.96;53.53;95111.03;5113750;28;20513;-53
2022/10/03 10:38:59;;;;;;;1.23;1.13;;;;;;;22.55;51.86;95100.16;5063041;28;21028;-53
2022/10/03 10:42:07;;;;;;;0.40;0.20;;;;;;;22.94;49.33;95095.69;5113532;28;20435;-53
2022/10/03 10:45:15;;;;;;;0.40;0.20;;;;;;;23.44;51.11;95081.34;5113637;28;20438;-53
2022/10/03 10:48:21;;;;;;;0.60;0.30;;;;;;;22.62;51.04;95089.56;5113689;28;20426;-53
2022/10/03 10:51:26;;;;;;;0.40;0.30;;;;;;;23.14;50.89;95081.06;5113086;28;20471;-53
2022/10/03 10:54:36;;;;;;;0.50;0.30;;;;;;;23.26;49.97;95075.53;5111669;28;20971;-53
2022/10/03 10:57:26;;;;;;;0.40;0.30;;;;;;;23.42;50.98;95076.28;5113280;28;20928;-53
2022/10/03 11:00:34;;;;;;;0.40;0.30;;;;;;;23.69;48.86;95072.56;5113501;28;20808;-53
2022/10/03 11:04:02;;;;;;;0.50;0.30;;;;;;;24.15;47.87;95070.72;5050343;28;20491;-53
2022/10/03 11:07:11;;;;;;;0.40;0.20;;;;;;;23.89;48.13;95060.56;4990829;28;20441;-53
2022/10/03 11:10:16;;;;;;;0.40;0.30;;;;;;;24.03;48.09;95054.63;5113379;28;20488;-53
2022/10/03 11:13:34;;;;;;;0.40;0.20;;;;;;;24.11;47.62;95055.56;5111203;28;20442;-53
2022/10/03 11:17:04;;;;;;;0.40;0.30;;;;;;;23.88;48.42;95048.16;5038044;28;20485;-53
2022/10/03 11:20:09;;;;;;;0.43;0.40;;;;;;;23.11;47.86;95049.34;5112800;28;20870;-53
2022/10/03 11:23:42;;;;;;;0.90;0.90;;;;;;;23.45;48.19;95035.00;5112813;28;20489;-54
2022/10/03 11:27:01;;;;;;;0.40;0.30;;;;;;;24.77;48.35;95025.25;5049753;28;20472;-53
2022/10/03 11:30:11;;;;;;;0.57;0.30;;;;;;;25.48;45.70;95016.91;5049714;28;20435;-53
2022/10/03 11:33:25;;;;;;;0.40;0.20;;;;;;;27.14;39.04;94999.25;5112568;28;20435;-54
2022/10/03 11:36:36;;;;;;;0.83;0.40;;;;;;;28.30;37.08;94996.06;5112785;28;20883;-54
2022/10/03 11:39:11;;;;;;;0.40;0.30;;;;;;;29.17;35.87;94985.41;5112809;28;20431;-54
2022/10/03 11:41:51;;;;;;;0.40;0.30;;;;;;;28.80;34.96;94985.91;5112414;28;20420;-54
2022/10/03 11:44:28;;;;;;;0.30;0.30;;;;;;;28.84;36.03;94981.97;5112406;28;20416;-54
2022/10/03 11:47:12;;;;;;;0.70;0.30;;;;;;;29.82;34.58;94988.25;5111333;28;20426;-54
2022/10/03 11:50:15;;;;;;;0.30;0.20;;;;;;;30.07;35.51;94972.47;5112209;28;20976;-54
2022/10/03 11:53:00;;;;;;;0.43;0.33;;;;;;;29.02;35.98;94973.00;5107429;28;20454;-54
2022/10/03 11:55:38;;;;;;;0.40;0.30;;;;;;;28.62;36.41;94975.03;5112109;28;20478;-54
2022/10/03 11:58:33;;;;;;;0.40;0.30;;;;;;;29.39;35.64;94976.78;5112552;28;20515;-54
2022/10/03 12:01:24;;;;;;;0.37;0.30;;;;;;;30.91;32.78;94970.19;5110000;28;20458;-54
2022/10/03 12:03:59;;;;;;;0.40;0.40;;;;;;;30.10;34.57;94960.75;5112530;28;20432;-55
2022/10/03 12:09:46;;;;;;;0.87;0.80;;;;;;;27.43;36.88;94957.41;5112106;28;20424;-55
2022/10/03 12:12:27;;;;;;;0.60;0.60;;;;;;;27.30;37.52;94967.03;5112403;28;20446;-55
2022/10/03 12:15:02;;;;;;;0.40;0.40;;;;;;;27.32;38.31;94895.91;5112017;28;20419;-55
2022/10/03 12:17:34;;;;;;;0.30;0.30;;;;;;;28.87;37.73;94956.66;5112019;28;20418;-55
2022/10/03 12:20:06;;;;;;;0.40;0.30;;;;;;;28.94;35.48;94956.63;5112324;28;20430;-55
2022/10/03 12:22:48;;;;;;;0.40;0.30;;;;;;;28.79;36.11;94957.09;5112092;28;20423;-55
2022/10/03 12:25:22;;;;;;;0.30;0.30;;;;;;;28.41;36.12;94953.22;5112508;28;20415;-55
2022/10/03 12:28:19;;;;;;;0.67;0.50;;;;;;;27.83;37.25;94952.81;5116024;28;20427;-55
2022/10/03 12:30:54;;;;;;;0.40;0.30;;;;;;;26.94;38.08;94944.34;5114871;28;20441;-54
2022/10/03 12:33:34;;;;;;;0.30;0.30;;;;;;;27.06;39.54;94956.84;5116212;28;20415;-54
2022/10/03 12:36:10;;;;;;;0.40;0.30;;;;;;;26.74;39.30;94953.19;5115872;28;20459;-55
2022/10/03 12:38:50;;;;;;;0.40;0.30;;;;;;;26.80;38.79;94963.34;5116058;28;20434;-55
2022/10/03 12:41:30;;;;;;;0.37;0.30;;;;;;;26.21;40.00;94959.03;5115881;28;20447;-54
2022/10/03 12:44:17;;;;;;;0.40;0.40;;;;;;;25.74;40.20;94953.59;5116148;28;20424;-54
2022/10/03 12:46:59;;;;;;;0.50;0.50;;;;;;;25.41;40.58;94951.69;5116033;28;20419;-53
2022/10/03 12:49:47;;;;;;;0.50;0.40;;;;;;;25.17;42.36;94952.97;5115476;28;20546;-53
2022/10/03 12:52:21;;;;;;;0.73;0.73;;;;;;;25.25;42.59;94956.53;5115785;28;20426;-53
2022/10/03 12:55:01;;;;;;;0.60;0.50;;;;;;;25.25;42.38;94954.59;5116323;28;20450;-53
2022/10/03 12:57:51;;;;;;;0.40;0.30;;;;;;;26.13;41.69;94956.66;5115957;28;20427;-52
2022/10/03 13:00:26;;;;;;;0.63;0.60;;;;;;;25.33;42.41;94952.75;5115865;28;20431;-52
2022/10/03 13:03:17;;;;;;;0.90;0.90;;;;;;;24.31;41.50;94832.25;5115443;28;20420;-53
2022/10/03 13:06:15;;;;;;;0.40;0.30;;;;;;;25.03;41.96;94955.53;5113993;27;20462;-52
2022/10/03 13:09:00;;;;;;;0.50;0.50;;;;;;;24.94;41.71;94974.00;5115746;28;20428;-53
2022/10/03 13:11:36;;;;;;;1.27;0.83;;;;;;;24.46;43.00;94983.00;5115759;28;20457;-53
2022/10/03 13:14:26;;;;;;;0.40;0.40;;;;;;;24.25;43.36;94979.97;5115574;28;20415;-53
2022/10/03 13:17:10;;;;;;;0.40;0.30;;;;;;;23.61;43.83;94972.66;5115501;28;20463;-53
2022/10/03 13:19:50;;;;;;;0.40;0.30;;;;;;;22.92;46.62;94987.16;5114984;28;20439;-53
2022/10/03 13:22:32;;;;;;;0.50;0.30;;;;;;;22.62;44.55;94990.38;5115114;28;20412;-53
2022/10/03 13:25:04;;;;;;;0.40;0.20;;;;;;;22.23;45.15;94975.22;5115035;28;20443;-56
2022/10/03 13:27:41;;;;;;;0.40;0.30;;;;;;;22.77;48.64;94975.25;5115466;28;20423;-53
2022/10/03 13:30:19;;;;;;;0.50;0.30;;;;;;;22.79;43.33;94977.63;5115097;28;20427;-53
2022/10/03 13:32:54;;;;;;;0.40;0.30;;;;;;;22.40;43.87;94976.72;5115311;28;20424;-53
2022/10/03 13:38:45;;;;;;;0.60;0.40;;;;;;;22.40;43.48;94984.84;5113837;28;20431;-54
2022/10/03 13:41:27;;;;;;;0.40;0.30;;;;;;;22.52;43.04;94990.13;5114799;28;20431;-53
2022/10/03 13:44:03;;;;;;;0.40;0.20;;;;;;;22.64;42.29;94992.75;5115056;28;20515;-53